Terminal Aerodrome Forecast
Issued by NWS Tampa Bay Area, FL

Home | Current Version | Previous Version | Text Only | Print | Product List | Glossary Off
Versions: 1 2 3 4 5 6 7 8 9 10 11 12 13 14 15 16 17 18 19 20 21 22 23 24 25 26 27 28

410
FTUS42 KTBW 111134
TAFTPA
TAF
KTPA 111134Z 1112/1218 04004KT P6SM FEW250
     FM111700 30006KT P6SM FEW250
     FM120100 VRB03KT P6SM FEW250
     FM121400 25010KT P6SM SCT030 BKN250=

USA.gov is the U.S. government's official web portal to all federal, state and local government web resources and services.